Gable, SC (29051)

5:55 AM EDT on July 23, 2014 (GMT -0400)
Williamsburg County (KCKI) Elev 66 ft | 33.72 °N, 79.86 °W | Change Station

Current weather conditions updated 18 seconds ago

Mostly Cloudy
Mostly Cloudy
72 °F
Feels Like 72 °F
N
0
Wind Variable Wind from North

Today is forecast to be Warmer than yesterday. Thunderstorms developing in the afternoon.

Today
High -- | Low -- °F
--% Chance of Precip.
Yesterday
High -- | Low -- °F
Precip. -- in
6:25 AM 8:27 PM
Waning Crescent, 11% visible
Pressure 30.07 in
Visibility 0.5 miles
Clouds Overcast 200 ft
Dew Point 72 °F
Humidity 100%
Rainfall 0.00 in
Snow Depth Not available.
UV 0 out of 12
Pollen 1.90 out of 12
Air Quality Not available.
Flu Activity Not available.
METAR KCKI 230955Z AUTO 00000KT 1/2SM FG OVC002 22/22 A3007 RMK AO2 LTG DSNT SE

More Conditions Fewer Conditions

Pressure 30.07 in
Visibility 0.5 miles
Clouds Overcast 200 ft
Dew Point 72 °F
Humidity 100%
Rainfall 0.00 in
Snow Depth Not available.
UV 0 out of 12
Pollen 1.90 out of 12
Air Quality Not available.
Flu Activity Not available.
METAR KCKI 230955Z AUTO 00000KT 1/2SM FG OVC002 22/22 A3007 RMK AO2 LTG DSNT SE

More Conditions Fewer Conditions

10-Day Weather Forecast

Almanac

Astronomy

Jul. 23, 2014 Rise Set
Actual Time 6:25 AM EDT 8:27 PM EDT
Civil Twilight 5:57 AM EDT 8:55 PM EDT
Nautical Twilight 5:23 AM EDT 9:29 PM EDT
Astronomical Twilight 4:47 AM EDT 10:05 PM EDT
Moon 3:42 AM EDT 5:55 PM EDT
Length of Visible Light 14h 57m
Length of Day
14h 01m
Tomorrow will be 1m 20s shorter.
Waning Crescent, 11% of the Moon is Illuminated
Today
Waning Crescent
Jul 26
New
Aug 3
First Quarter
Aug 10
Full
Aug 17
Last Quarter

Today's Extremes

State Highs State Lows

Community

WunderPhotos

Upload Photos

1,736,535 photos uploaded!

Nearby

Snow Depth

Station Depth Elevation
No new snow has been reported.

Earthquake Activity

City Distance Mag. Time & Date
No recent earthquake activity has been reported nearby.
Minimum magnitude displayed is 2.5.

Coastal Water Temperatures

Place Temperature
No Stations Reporting

Nearby Weather Stations

Station Location Temp. Heat Index Dew Point Humidity Wind Precip. Elev Updated Type
USC Sumter, Sumter, SC 74.0 °F 71 °F 73 °F 96% NW  at  0.0 mph 0.00 in / hr 165 ft 5:30 AM EDT Normal
Southwest Sumter, Sumter, SC 71.8 °F - 70 °F 95% South  at  0.0 mph 0.00 in / hr 171 ft 5:55 AM EDT Rapid Fire
Sunway Knolls, Sumter, SC 73.2 °F - 73 °F 100% North  at  0.0 mph 0.00 in / hr 181 ft 5:55 AM EDT Rapid Fire
Garden Gate, Sumter, SC 72.4 °F - 72 °F 97% NNE  at  0.0 mph 0.00 in / hr 200 ft 5:55 AM EDT Rapid Fire
Dalzell,SC, Sumter, SC 71.2 °F - 71 °F 99% SSE  at  0.0 mph 0.00 in / hr 185 ft 5:55 AM EDT Rapid Fire

Show More Stations Show Fewer Stations